.
WxDataArchive / Data Records for 2014-04-18
2014-04-17 April 2014 2014-04-19

Data Records for Friday, 18 April 2014

Time	Temp	Chill	HIndex	Humid	Dewpt	 Wind 	HiWind	WindDir	Rain 	Barom
-----	----	-----	------	-----	-----	------	------	-------	-----	-----
00:00	51.4	51.4	51.4	53	34.8	0	0	---	0.00	30.232 
00:05	51.4	51.4	51.4	54	35.3	0	0	---	0.00	30.232 
00:10	51.4	51.4	51.4	54	35.3	0	0	---	0.00	30.232 
00:15	51.3	51.3	51.3	54	35.2	0	0	---	0.00	30.226 
00:20	51.3	51.3	51.3	54	35.2	0	0	---	0.00	30.226 
00:25	51.1	51.1	51.1	55	35.5	0	1	248	0.00	30.226 
00:30	51.1	51.1	51.1	55	35.5	0	0	---	0.00	30.226 
00:35	51.1	51.1	51.1	55	35.5	0	0	---	0.00	30.226 
00:40	51.1	51.1	51.1	55	35.5	0	0	---	0.00	30.226 
00:45	51.1	51.1	51.1	54	35.0	0	0	---	0.00	30.231 
00:50	51.3	51.3	51.3	54	35.2	0	0	---	0.00	30.231 
00:55	51.4	51.4	51.4	54	35.3	0	0	---	0.00	30.231 
01:00	51.6	51.6	51.6	54	35.5	0	0	---	0.00	30.231 
01:05	51.6	51.6	51.6	54	35.5	0	0	---	0.00	30.231 
01:10	51.7	51.7	51.7	54	35.6	0	0	---	0.00	30.231 
01:15	51.7	51.7	51.7	53	35.1	0	0	---	0.00	30.222 
01:20	51.9	51.9	51.9	53	35.3	0	0	---	0.00	30.222 
01:25	51.9	51.9	51.9	52	34.8	0	0	---	0.00	30.222 
01:30	51.9	51.9	51.9	53	35.3	0	0	---	0.00	30.220 
01:35	51.7	51.7	51.7	54	35.6	0	0	---	0.00	30.220 
01:40	51.6	51.6	51.6	53	35.0	0	0	---	0.00	30.220 
01:45	51.7	51.7	51.7	53	35.1	0	0	---	0.00	30.225 
01:50	51.7	51.7	51.7	53	35.1	0	0	---	0.00	30.225 
01:55	51.6	51.6	51.6	53	35.0	0	0	---	0.00	30.225 
02:00	51.4	51.4	51.4	53	34.8	0	0	---	0.00	30.217 
02:05	51.1	51.1	51.1	54	35.0	0	0	---	0.00	30.217 
02:10	50.8	50.8	50.8	54	34.8	0	0	---	0.00	30.217 
02:15	50.5	50.5	50.5	55	34.9	0	0	---	0.00	30.212 
02:20	50.4	50.4	50.4	55	34.8	0	0	---	0.00	30.212 
02:25	50.1	50.1	50.1	56	35.0	0	0	---	0.00	30.212 
02:30	49.9	49.9	49.9	56	34.8	0	0	---	0.00	30.214 
02:35	49.6	49.6	49.6	57	35.0	0	0	---	0.00	30.214 
02:40	49.5	49.5	49.5	57	34.9	0	0	---	0.00	30.214 
02:45	49.2	49.2	49.2	58	35.1	0	0	---	0.00	30.215 
02:50	48.9	48.9	48.9	59	35.2	0	0	---	0.00	30.215 
02:55	48.8	48.8	48.8	59	35.1	0	0	---	0.00	30.215 
03:00	48.5	48.5	48.5	60	35.3	0	0	---	0.00	30.214 
03:05	48.2	48.2	48.2	60	35.0	0	0	---	0.00	30.214 
03:10	47.7	47.7	47.7	61	34.9	0	0	---	0.00	30.214 
03:15	47.4	47.4	47.4	62	35.0	0	0	---	0.00	30.208 
03:20	47.1	47.1	47.1	63	35.2	0	0	---	0.00	30.208 
03:25	47.0	47.0	47.0	63	35.1	0	0	---	0.00	30.208 
03:30	46.7	46.7	46.7	64	35.2	0	0	---	0.00	30.212 
03:35	46.5	46.5	46.5	65	35.4	0	0	---	0.00	30.212 
03:40	46.2	46.2	46.2	65	35.1	0	0	---	0.00	30.212 
03:45	46.2	46.2	46.2	65	35.1	0	0	---	0.00	30.214 
03:50	46.2	46.2	46.2	66	35.5	0	0	---	0.00	30.214 
03:55	46.2	46.2	46.2	66	35.5	0	0	---	0.00	30.214 
04:00	46.2	46.2	46.2	66	35.5	0	0	---	0.00	30.217 
04:05	46.1	46.1	46.1	66	35.4	0	0	---	0.00	30.217 
04:10	46.1	46.1	46.1	66	35.4	0	0	---	0.00	30.217 
04:15	46.2	46.2	46.2	66	35.5	0	0	---	0.00	30.216 
04:20	46.4	46.4	46.4	66	35.7	0	0	---	0.00	30.216 
04:25	46.4	46.4	46.4	66	35.7	0	0	---	0.00	30.216 
04:30	46.4	46.4	46.4	67	36.0	0	0	---	0.00	30.218 
04:35	46.5	46.5	46.5	66	35.8	0	0	---	0.00	30.218 
04:40	46.4	46.4	46.4	67	36.0	0	0	---	0.00	30.218 
04:45	46.2	46.2	46.2	67	35.9	0	0	---	0.00	30.217 
04:50	46.1	46.1	46.1	67	35.8	0	0	---	0.00	30.217 
04:55	46.0	46.0	46.0	68	36.0	0	0	---	0.00	30.217 
05:00	45.8	45.8	45.8	68	35.8	0	0	---	0.00	30.216 
05:05	45.7	45.7	45.7	69	36.1	0	0	---	0.00	30.216 
05:10	45.5	45.5	45.5	69	35.9	0	0	---	0.00	30.216 
05:15	45.4	45.4	45.4	70	36.2	0	0	---	0.00	30.220 
05:20	45.1	45.1	45.1	69	35.5	0	0	---	0.00	30.220 
05:25	44.9	44.9	44.9	70	35.7	0	0	---	0.00	30.220 
05:30	44.6	44.6	44.6	71	35.8	0	0	---	0.00	30.224 
05:35	44.5	44.5	44.5	72	36.0	0	0	---	0.00	30.224 
05:40	44.3	44.3	44.3	72	35.9	0	0	---	0.00	30.224 
05:45	44.2	44.2	44.2	72	35.8	0	0	---	0.00	30.232 
05:50	44.1	44.1	44.1	73	36.0	0	0	---	0.00	30.232 
05:55	44.1	44.1	44.1	73	36.0	0	0	---	0.00	30.232 
06:00	43.9	43.9	43.9	74	36.2	0	0	---	0.00	30.235 
06:05	43.9	43.9	43.9	74	36.2	0	0	---	0.00	30.235 
06:10	43.8	43.8	43.8	74	36.1	0	0	---	0.00	30.235 
06:15	43.9	43.9	43.9	75	36.5	0	0	---	0.00	30.239 
06:20	43.8	43.8	43.8	75	36.4	0	0	---	0.00	30.239 
06:25	43.8	43.8	43.8	75	36.4	0	0	---	0.00	30.239 
06:30	43.8	43.8	43.8	75	36.4	0	0	---	0.00	30.241 
06:35	43.6	43.6	43.6	76	36.5	0	0	---	0.00	30.241 
06:40	43.6	43.6	43.6	76	36.5	0	0	---	0.00	30.241 
06:45	43.6	43.6	43.6	77	36.9	0	0	---	0.00	30.238 
06:50	43.6	43.6	43.6	76	36.5	0	0	---	0.00	30.238 
06:55	43.6	43.6	43.6	77	36.9	0	0	---	0.00	30.238 
07:00	43.6	43.6	43.6	77	36.9	0	0	---	0.00	30.248 
07:05	43.6	43.6	43.6	77	36.9	0	0	---	0.00	30.248 
07:10	43.6	43.6	43.6	77	36.9	0	0	---	0.00	30.248 
07:15	43.5	43.5	43.5	77	36.8	0	0	---	0.00	30.250 
07:20	43.3	43.3	43.3	77	36.6	0	0	---	0.00	30.250 
07:25	43.3	43.3	43.3	77	36.6	0	0	---	0.00	30.250 
07:30	43.5	43.5	43.5	78	37.1	0	0	---	0.00	30.254 
07:35	43.8	43.8	43.8	78	37.4	0	0	---	0.00	30.254 
07:40	44.1	44.1	44.1	78	37.7	0	0	---	0.00	30.254 
07:45	44.5	44.5	44.5	78	38.1	0	0	---	0.00	30.255 
07:50	44.8	44.8	44.8	78	38.4	0	0	---	0.00	30.255 
07:55	45.2	45.2	45.2	77	38.4	0	0	---	0.00	30.255 
08:00	45.7	45.7	45.7	78	39.2	0	0	---	0.00	30.260 
08:05	46.1	46.1	46.1	77	39.3	0	0	---	0.00	30.260 
08:10	46.5	46.5	46.5	76	39.3	0	0	---	0.00	30.260 
08:15	47.0	47.0	47.0	76	39.8	0	0	---	0.00	30.268 
08:20	47.4	47.4	47.4	75	39.9	0	0	---	0.00	30.268 
08:25	48.0	48.0	48.0	74	40.1	0	0	---	0.00	30.268 
08:30	48.8	48.8	48.8	72	40.2	0	0	---	0.00	30.264 
08:35	49.6	49.6	49.6	70	40.2	0	1	248	0.00	30.264 
08:40	50.4	50.4	50.4	69	40.6	0	0	---	0.00	30.264 
08:45	51.0	51.0	51.0	68	40.8	0	0	---	0.00	30.255 
08:50	51.7	51.7	51.7	67	41.1	0	1	248	0.00	30.255 
08:55	52.6	52.6	52.6	65	41.2	0	0	---	0.00	30.255 
09:00	53.3	53.3	53.3	60	39.8	0	1	248	0.00	30.257 
09:05	53.9	53.9	53.9	59	39.9	0	1	248	0.00	30.257 
09:10	54.7	54.7	54.7	57	39.8	1	4	135	0.00	30.257 
09:15	55.1	55.1	55.1	57	40.1	1	5	90	0.00	30.256 
09:20	55.7	55.7	55.7	57	40.7	0	1	90	0.00	30.256 
09:25	56.3	56.3	56.3	54	39.9	1	3	90	0.00	30.256 
09:30	56.9	56.9	56.9	51	39.0	2	4	90	0.00	30.252 
09:35	57.0	57.0	57.0	53	40.0	2	5	112	0.00	30.252 
09:40	57.0	57.0	57.0	54	40.5	2	6	90	0.00	30.252 
09:45	57.2	57.2	57.2	54	40.7	1	4	90	0.00	30.251 
09:50	57.2	57.2	57.2	54	40.7	1	4	90	0.00	30.251 
09:55	57.0	57.0	57.0	55	41.0	1	2	90	0.00	30.251 
10:00	57.2	57.2	57.2	54	40.7	0	1	90	0.00	30.258 
10:05	57.5	57.5	57.5	55	41.5	0	1	90	0.00	30.258 
10:10	57.6	57.6	57.6	53	40.6	0	2	90	0.00	30.258 
10:15	58.0	58.0	58.0	55	41.9	0	2	90	0.00	30.260 
10:20	58.3	58.3	58.3	55	42.2	0	1	90	0.00	30.260 
10:25	58.6	58.6	58.6	52	41.0	0	1	90	0.00	30.260 
10:30	59.0	59.0	59.0	51	40.9	0	1	90	0.00	30.262 
10:35	59.8	59.8	59.8	51	41.6	0	2	90	0.00	30.262 
10:40	60.7	60.7	60.7	48	40.9	0	2	90	0.00	30.262 
10:45	61.2	61.2	61.2	49	41.9	1	5	90	0.00	30.255 
10:50	61.3	61.3	61.3	47	40.9	1	3	112	0.00	30.255 
10:55	61.2	61.2	61.2	48	41.3	1	2	225	0.00	30.255 
11:00	61.3	61.3	61.3	49	42.0	0	3	225	0.00	30.257 
11:05	62.0	62.0	62.0	47	41.5	0	1	225	0.00	30.257 
11:10	62.4	62.4	62.4	47	41.9	0	1	225	0.00	30.257 
11:15	62.7	62.7	62.7	46	41.6	1	4	270	0.00	30.255 
11:20	62.9	62.9	62.9	45	41.2	0	2	270	0.00	30.255 
11:25	62.9	62.9	62.9	43	40.1	1	4	248	0.00	30.255 
11:30	62.9	62.9	62.9	46	41.8	0	2	248	0.00	30.256 
11:35	62.7	62.7	62.7	45	41.0	1	4	248	0.00	30.256 
11:40	62.9	62.9	62.9	45	41.2	1	4	248	0.00	30.256 
11:45	63.2	63.2	63.2	44	40.9	1	3	270	0.00	30.255 
11:50	63.2	63.2	63.2	44	40.9	1	3	270	0.00	30.255 
11:55	63.4	63.4	63.4	44	41.1	1	3	248	0.00	30.255 
12:00	63.7	63.7	63.7	46	42.5	0	2	248	0.00	30.254 
12:05	64.2	64.2	64.2	46	43.0	0	2	248	0.00	30.254 
12:10	64.3	64.3	64.3	42	40.7	1	3	248	0.00	30.254 
12:15	64.3	64.3	64.3	43	41.3	0	2	248	0.00	30.253 
12:20	64.3	64.3	64.3	43	41.3	0	2	248	0.00	30.253 
12:25	64.5	64.5	64.5	43	41.5	1	3	248	0.00	30.253 
12:30	64.5	64.5	64.5	42	40.9	1	2	248	0.00	30.256 
12:35	64.2	64.2	64.2	43	41.2	0	2	248	0.00	30.256 
12:40	64.2	64.2	64.2	43	41.2	0	3	248	0.00	30.256 
12:45	64.5	64.5	64.5	44	42.1	1	4	248	0.00	30.247 
12:50	64.5	64.5	64.5	40	39.6	1	3	248	0.00	30.247 
12:55	63.9	63.9	63.9	40	39.1	2	5	248	0.00	30.247 
13:00	63.4	63.4	63.4	42	39.9	1	4	248	0.00	30.248 
13:05	63.4	63.4	63.4	42	39.9	1	4	248	0.00	30.248 
13:10	63.9	63.9	63.9	42	40.4	2	7	248	0.00	30.248 
13:15	63.9	63.9	63.9	42	40.4	1	4	248	0.00	30.246 
13:20	63.9	63.9	63.9	43	41.0	1	3	248	0.00	30.246 
13:25	64.8	64.8	64.8	42	41.2	2	4	248	0.00	30.246 
13:30	64.8	64.8	64.8	40	39.9	1	4	248	0.00	30.242 
13:35	64.7	64.7	64.7	41	40.5	1	3	248	0.00	30.242 
13:40	64.8	64.8	64.8	40	39.9	2	4	248	0.00	30.242 
13:45	64.5	64.5	64.5	40	39.6	2	5	248	0.00	30.243 
13:50	64.0	64.0	64.0	40	39.2	2	5	270	0.00	30.243 
13:55	63.9	63.9	63.9	40	39.1	2	4	270	0.00	30.243 
14:00	63.7	63.7	63.7	43	40.8	1	4	248	0.00	30.242 
14:05	64.8	64.8	64.8	43	41.8	1	4	315	0.00	30.242 
14:10	66.0	66.0	66.0	39	40.3	2	6	270	0.00	30.242 
14:15	66.0	66.0	66.0	40	41.0	2	5	270	0.00	30.240 
14:20	66.1	66.1	66.1	39	40.4	1	5	248	0.00	30.240 
14:25	66.6	66.6	66.6	40	41.5	2	9	248	0.00	30.240 
14:30	66.1	66.1	66.1	37	39.1	2	5	248	0.00	30.238 
14:35	65.3	65.3	65.3	40	40.4	2	5	270	0.00	30.238 
14:40	66.0	66.0	66.0	39	40.3	2	4	292	0.00	30.238 
14:45	65.6	65.6	65.6	39	40.0	1	3	270	0.00	30.236 
14:50	65.0	65.0	65.0	38	38.8	2	5	270	0.00	30.236 
14:55	64.3	64.3	64.3	39	38.8	2	7	270	0.00	30.236 
15:00	64.5	64.5	64.5	41	40.3	1	3	248	0.00	30.234 
15:05	65.6	65.6	65.6	40	40.6	2	6	315	0.00	30.234 
15:10	66.3	66.3	66.3	37	39.2	3	7	270	0.00	30.234 
15:15	66.9	66.9	66.9	37	39.8	3	7	270	0.00	30.230 
15:20	67.3	67.3	67.3	38	40.8	3	5	292	0.00	30.230 
15:25	67.3	67.3	67.3	36	39.4	3	7	270	0.00	30.230 
15:30	67.4	67.4	67.4	35	38.8	2	5	270	0.00	30.232 
15:35	67.4	67.4	67.4	36	39.5	1	4	270	0.00	30.232 
15:40	66.6	66.6	66.6	37	39.5	2	6	315	0.00	30.232 
15:45	65.8	65.8	65.8	39	40.1	1	4	270	0.00	30.229 
15:50	65.8	65.8	65.8	40	40.8	2	7	338	0.00	30.229 
15:55	66.0	66.0	66.0	37	39.0	3	5	315	0.00	30.229 
16:00	65.5	65.5	65.5	37	38.5	2	7	270	0.00	30.229 
16:05	65.6	65.6	65.6	39	40.0	2	6	292	0.00	30.229 
16:10	66.4	66.4	66.4	36	38.6	2	5	248	0.00	30.229 
16:15	66.3	66.3	66.3	36	38.5	3	10	338	0.00	30.220 
16:20	66.4	66.4	66.4	38	40.0	2	5	270	0.00	30.220 
16:25	66.9	66.9	66.9	35	38.4	2	4	270	0.00	30.220 
16:30	66.9	66.9	66.9	36	39.1	2	5	315	0.00	30.217 
16:35	67.1	67.1	67.1	34	37.8	1	4	248	0.00	30.217 
16:40	66.8	66.8	66.8	35	38.3	3	6	338	0.00	30.217 
16:45	66.6	66.6	66.6	35	38.1	2	5	270	0.00	30.215 
16:50	66.4	66.4	66.4	35	37.9	2	5	270	0.00	30.215 
16:55	66.6	66.6	66.6	36	38.8	1	4	270	0.00	30.215 
17:00	66.8	66.8	66.8	34	37.5	2	6	338	0.00	30.214 
17:05	66.1	66.1	66.1	35	37.6	2	5	338	0.00	30.214 
17:10	66.4	66.4	66.4	36	38.6	2	4	270	0.00	30.214 
17:15	66.9	66.9	66.9	35	38.4	1	5	270	0.00	30.215 
17:20	66.3	66.3	66.3	34	37.1	3	9	338	0.00	30.215 
17:25	66.3	66.3	66.3	37	39.2	1	4	270	0.00	30.215 
17:30	66.6	66.6	66.6	34	37.3	2	5	270	0.00	30.213 
17:35	66.4	66.4	66.4	32	35.6	3	5	270	0.00	30.213 
17:40	66.1	66.1	66.1	31	34.6	3	7	338	0.00	30.213 
17:45	66.4	66.4	66.4	30	34.0	2	5	270	0.00	30.215 
17:50	66.3	66.3	66.3	28	32.2	3	6	270	0.00	30.215 
17:55	66.3	66.3	66.3	31	34.8	2	4	292	0.00	30.215 
18:00	66.1	66.1	66.1	31	34.6	2	5	315	0.00	30.214 
18:05	66.0	66.0	66.0	27	31.1	1	5	22	0.00	30.214 
18:10	65.8	65.8	65.8	28	31.8	2	5	338	0.00	30.214 
18:15	65.8	65.8	65.8	30	33.5	1	4	270	0.00	30.212 
18:20	65.5	65.5	65.5	29	32.4	2	5	338	0.00	30.212 
18:25	65.2	65.2	65.2	30	33.0	2	6	338	0.00	30.212 
18:30	65.0	65.0	65.0	28	31.1	3	7	315	0.00	30.213 
18:35	64.8	64.8	64.8	30	32.6	2	6	292	0.00	30.213 
18:40	64.7	64.7	64.7	30	32.5	2	5	338	0.00	30.213 
18:45	64.5	64.5	64.5	29	31.5	1	4	292	0.00	30.213 
18:50	64.7	64.7	64.7	27	29.9	2	6	338	0.00	30.213 
18:55	64.5	64.5	64.5	28	30.7	2	7	315	0.00	30.213 
19:00	64.2	64.2	64.2	28	30.4	1	3	0	0.00	30.212 
19:05	64.0	64.0	64.0	27	29.4	1	4	315	0.00	30.212 
19:10	64.0	64.0	64.0	26	28.4	2	4	270	0.00	30.212 
19:15	63.9	63.9	63.9	26	28.3	2	6	315	0.00	30.212 
19:20	63.5	63.5	63.5	25	27.1	2	4	338	0.00	30.212 
19:25	63.4	63.4	63.4	26	27.9	1	4	0	0.00	30.212 
19:30	63.2	63.2	63.2	26	27.7	1	4	292	0.00	30.218 
19:35	62.9	62.9	62.9	27	28.4	1	4	292	0.00	30.218 
19:40	62.6	62.6	62.6	30	30.7	2	5	315	0.00	30.218 
19:45	62.1	62.1	62.1	31	31.1	2	5	338	0.00	30.218 
19:50	61.8	61.8	61.8	31	30.8	1	4	338	0.00	30.218 
19:55	61.5	61.5	61.5	32	31.4	1	4	292	0.00	30.218 
20:00	61.2	61.2	61.2	32	31.1	2	6	315	0.00	30.219 
20:05	60.9	60.9	60.9	33	31.6	1	5	315	0.00	30.219 
20:10	60.5	60.5	60.5	32	30.5	2	5	315	0.00	30.219 
20:15	60.1	60.1	60.1	33	30.9	0	3	292	0.00	30.218 
20:20	59.6	59.6	59.6	32	29.7	1	4	292	0.00	30.218 
20:25	59.3	59.3	59.3	31	28.7	1	3	292	0.00	30.218 
20:30	59.0	59.0	59.0	32	29.2	1	2	292	0.00	30.218 
20:35	58.7	58.7	58.7	33	29.7	1	4	292	0.00	30.218 
20:40	58.4	58.4	58.4	35	30.9	1	3	315	0.00	30.218 
20:45	58.1	58.1	58.1	35	30.6	1	3	0	0.00	30.221 
20:50	57.6	57.6	57.6	37	31.5	0	2	292	0.00	30.221 
20:55	57.3	57.3	57.3	38	31.9	0	2	292	0.00	30.221 
21:00	57.0	57.0	57.0	39	32.3	1	4	315	0.00	30.231 
21:05	56.6	56.6	56.6	40	32.6	0	2	315	0.00	30.231 
21:10	56.3	56.3	56.3	42	33.5	0	3	315	0.00	30.231 
21:15	56.2	56.2	56.2	43	34.0	1	5	0	0.00	30.235 
21:20	55.9	55.9	55.9	44	34.3	0	2	292	0.00	30.235 
21:25	55.6	55.6	55.6	44	34.0	1	4	292	0.00	30.235 
21:30	55.4	55.4	55.4	45	34.4	1	5	315	0.00	30.248 
21:35	55.3	55.3	55.3	44	33.8	1	4	338	0.00	30.248 
21:40	55.1	55.1	55.1	44	33.6	1	7	338	0.00	30.248 
21:45	54.8	54.8	54.8	45	33.9	1	3	315	0.00	30.252 
21:50	54.5	54.5	54.5	45	33.6	1	4	338	0.00	30.252 
21:55	54.2	54.2	54.2	46	33.9	1	3	338	0.00	30.252 
22:00	53.8	53.8	53.8	46	33.5	1	4	338	0.00	30.263 
22:05	53.5	53.5	53.5	46	33.2	1	4	338	0.00	30.263 
22:10	53.3	53.3	53.3	46	33.1	1	9	270	0.00	30.263 
22:15	52.9	52.9	52.9	46	32.7	1	3	22	0.00	30.266 
22:20	52.6	52.6	52.6	47	32.9	1	4	338	0.00	30.266 
22:25	52.5	52.5	52.5	47	32.9	1	4	338	0.00	30.266 
22:30	52.0	52.0	52.0	48	32.9	0	3	338	0.00	30.275 
22:35	51.7	51.7	51.7	49	33.2	0	3	315	0.00	30.275 
22:40	51.3	51.3	51.3	50	33.3	0	3	315	0.00	30.275 
22:45	51.0	51.0	51.0	51	33.5	1	3	315	0.00	30.282 
22:50	50.7	50.7	50.7	52	33.7	0	2	338	0.00	30.282 
22:55	50.4	50.4	50.4	53	33.9	0	1	338	0.00	30.282 
23:00	49.9	49.9	49.9	54	33.9	0	1	338	0.00	30.287 
23:05	49.6	49.6	49.6	55	34.1	0	1	338	0.00	30.287 
23:10	49.2	49.2	49.2	56	34.2	0	2	338	0.00	30.287 
23:15	48.9	48.9	48.9	57	34.3	0	2	338	0.00	30.284 
23:20	48.6	48.6	48.6	58	34.5	0	2	338	0.00	30.284 
23:25	48.3	48.3	48.3	58	34.2	0	1	338	0.00	30.284 
23:30	48.2	48.2	48.2	59	34.6	0	1	338	0.00	30.284 
23:35	47.9	47.9	47.9	59	34.3	0	2	338	0.00	30.284 
23:40	47.7	47.7	47.7	60	34.5	0	1	338	0.00	30.284 
23:45	47.4	47.4	47.4	60	34.2	0	1	338	0.00	30.286 
23:50	47.1	47.1	47.1	60	33.9	0	1	338	0.00	30.286 
23:55	47.0	47.0	47.0	60	33.8	0	1	338	0.00	30.286 

CoCoRaHS
IN-AL-39
A2 Web Hosting
Creative Commons License
GoDaddy
search engine by freefind advanced

loaded 2018-11-13 01:27:34 • last modified 2010-11-18 10:43:29
Privacy PolicyDisclaimer
• wx.awcolley.com is powered by PmWiki v.2002016 •
• all content (unless otherwise noted) © 2018 A W Colley